Time;durP1;ratioP1;P1;durP2;ratioP2;P2;SDS_P1;SDS_P2;PMS_P1;PMS_P2;Temp;Humidity;BMP_temperature;BMP_pressure;BME280_temperature;BME280_humidity;BME280_pressure;Samples;Min_cycle;Max_cycle;Signal;HPM_P1;HPM_P2
2022/01/20 00:03:32;;;;;;;62.10;38.47;;;4.30;99.90;;;;;;6126455;23;20088;-92
2022/01/20 00:09:04;;;;;;;63.63;37.60;;;4.40;99.90;;;;;;6126906;23;20006;-92
2022/01/20 00:28:01;;;;;;;63.50;39.97;;;4.00;99.90;;;;;;6126339;23;20013;-92
2022/01/20 00:33:14;;;;;;;60.33;37.95;;;3.80;99.90;;;;;;6126197;23;20314;-92
2022/01/20 00:38:16;;;;;;;61.00;39.15;;;3.80;99.90;;;;;;6126104;23;20006;-92
2022/01/20 00:40:42;;;;;;;61.38;38.22;;;4.50;99.90;;;;;;6126301;23;20433;-92
2022/01/20 00:43:07;;;;;;;63.05;39.22;;;3.90;99.90;;;;;;6101311;23;20078;-92
2022/01/20 00:45:33;;;;;;;67.40;40.10;;;3.80;99.90;;;;;;6126591;23;20017;-92
2022/01/20 00:47:58;;;;;;;65.90;40.10;;;4.30;99.90;;;;;;6100225;23;20083;-91
2022/01/20 00:50:24;;;;;;;63.85;39.58;;;4.30;99.90;;;;;;6125957;23;20009;-92
2022/01/20 00:52:52;;;;;;;63.35;38.67;;;3.80;99.90;;;;;;6126501;23;20006;-92
2022/01/20 00:55:18;;;;;;;64.50;40.08;;;4.30;99.90;;;;;;6127054;23;20016;-92
2022/01/20 00:57:44;;;;;;;61.42;39.42;;;4.20;99.90;;;;;;6125699;23;20025;-92
2022/01/20 01:00:12;;;;;;;68.38;41.45;;;3.70;99.90;;;;;;6099879;23;20018;-92
2022/01/20 01:02:38;;;;;;;65.28;39.17;;;3.70;99.90;;;;;;6100131;23;20006;-92
2022/01/20 01:05:05;;;;;;;65.10;39.58;;;4.10;99.90;;;;;;6100861;23;20017;-92
2022/01/20 01:10:08;;;;;;;65.75;38.55;;;4.30;99.90;;;;;;6126282;23;20318;-92
2022/01/20 01:12:44;;;;;;;73.28;41.03;;;3.70;99.90;;;;;;6100628;23;20059;-92
2022/01/20 01:15:13;;;;;;;69.05;40.35;;;4.00;99.90;;;;;;6125908;23;20021;-92
2022/01/20 01:20:25;;;;;;;68.07;40.85;;;4.00;99.90;;;;;;6126174;23;20512;-92
2022/01/20 01:22:51;;;;;;;65.55;42.15;;;3.60;99.90;;;;;;6100685;23;20055;-91
2022/01/20 01:25:17;;;;;;;63.95;40.38;;;4.20;99.90;;;;;;6100115;23;20013;-92
2022/01/20 01:27:44;;;;;;;65.95;40.22;;;3.60;99.90;;;;;;6100139;23;20002;-92
2022/01/20 01:32:47;;;;;;;66.55;42.13;;;3.70;99.90;;;;;;6125576;23;20002;-91
2022/01/20 01:35:14;;;;;;;67.15;43.42;;;4.20;99.90;;;;;;6126987;23;20013;-92
2022/01/20 01:40:08;;;;;;;68.13;41.10;;;4.20;99.90;;;;;;6126590;23;20014;-92
2022/01/20 01:42:43;;;;;;;69.60;41.42;;;3.70;99.90;;;;;;6100552;23;20002;-92
2022/01/20 01:45:13;;;;;;;66.07;40.78;;;4.50;99.90;;;;;;6099899;23;20437;-92
2022/01/20 01:47:39;;;;;;;71.82;40.75;;;3.90;99.90;;;;;;6125721;23;20032;-92
2022/01/20 01:50:06;;;;;;;67.72;40.67;;;4.30;99.90;;;;;;6126823;23;20005;-92
2022/01/20 01:52:32;;;;;;;62.75;40.30;;;3.90;99.90;;;;;;6127012;23;20068;-92
2022/01/20 01:54:57;;;;;;;71.95;41.75;;;4.30;99.90;;;;;;6125228;23;20033;-92
2022/01/20 01:57:24;;;;;;;63.10;39.72;;;4.30;99.90;;;;;;6100300;23;20507;-92
2022/01/20 01:59:50;;;;;;;63.33;40.05;;;4.20;99.90;;;;;;6124867;23;20020;-92
2022/01/20 02:02:16;;;;;;;62.22;40.10;;;4.40;99.90;;;;;;6125386;23;19998;-92
2022/01/20 02:04:42;;;;;;;66.10;39.78;;;4.30;99.90;;;;;;6126313;23;20273;-92
2022/01/20 02:18:13;;;;;;;63.28;39.40;;;4.10;99.90;;;;;;6125146;23;20012;-92
2022/01/20 02:20:39;;;;;;;62.85;39.60;;;4.00;99.90;;;;;;6126131;23;20045;-92
2022/01/20 02:23:05;;;;;;;64.72;39.88;;;4.00;99.90;;;;;;6125664;23;20006;-92
2022/01/20 02:25:34;;;;;;;62.90;39.78;;;3.90;99.90;;;;;;6124980;23;20013;-93
2022/01/20 02:28:02;;;;;;;61.20;38.75;;;4.50;99.90;;;;;;6125465;23;20006;-92
2022/01/20 02:30:29;;;;;;;63.80;39.72;;;3.90;99.90;;;;;;6099294;23;20455;-92
2022/01/20 02:32:57;;;;;;;63.95;38.35;;;3.90;99.90;;;;;;6125584;23;20026;-92
2022/01/20 02:35:25;;;;;;;66.50;39.47;;;3.80;99.90;;;;;;6126545;23;20002;-92
2022/01/20 02:37:59;;;;;;;62.75;38.45;;;4.30;99.90;;;;;;6098989;23;20356;-92
2022/01/20 02:44:50;;;;;;;63.15;40.08;;;4.50;99.90;;;;;;6101881;23;20014;-92
2022/01/20 02:46:07;;;;;;;65.05;39.17;;;3.90;99.90;;;;;;6127570;23;20016;-92
2022/01/20 02:48:33;;;;;;;59.10;37.42;;;4.00;99.90;;;;;;6101093;23;20009;-92
2022/01/20 02:50:58;;;;;;;59.00;37.55;;;3.90;99.90;;;;;;6127183;23;19998;-92
2022/01/20 02:53:24;;;;;;;57.30;37.78;;;4.30;99.90;;;;;;6127280;23;20085;-93
2022/01/20 02:55:51;;;;;;;57.85;36.45;;;4.00;99.90;;;;;;6126228;23;20050;-92
2022/01/20 02:58:17;;;;;;;57.67;36.50;;;4.00;99.90;;;;;;6126520;23;20386;-92
2022/01/20 03:00:43;;;;;;;56.63;36.45;;;3.80;99.90;;;;;;6101461;23;20066;-92
2022/01/20 03:03:09;;;;;;;60.78;36.55;;;4.50;99.90;;;;;;6101217;23;20013;-92
2022/01/20 03:05:35;;;;;;;57.33;35.95;;;3.90;99.90;;;;;;6101287;23;20425;-92
2022/01/20 03:08:00;;;;;;;61.83;35.78;;;4.50;99.90;;;;;;6128123;23;20134;-92
2022/01/20 03:10:29;;;;;;;55.30;35.28;;;4.00;99.90;;;;;;6126978;23;20050;-92
2022/01/20 03:12:56;;;;;;;58.20;35.67;;;4.00;99.90;;;;;;6126621;23;20002;-92
2022/01/20 03:15:22;;;;;;;58.88;36.40;;;4.00;99.90;;;;;;6126584;23;20026;-92
2022/01/20 03:17:48;;;;;;;53.60;34.65;;;4.00;99.90;;;;;;6127305;23;20006;-93
2022/01/20 03:20:13;;;;;;;54.75;35.25;;;3.90;99.90;;;;;;6101582;23;20492;-92
2022/01/20 03:22:39;;;;;;;55.63;35.42;;;3.90;99.90;;;;;;6126815;23;20002;-93
2022/01/20 03:25:05;;;;;;;56.05;34.75;;;4.30;99.90;;;;;;6127005;23;20374;-92
2022/01/20 03:27:31;;;;;;;54.38;34.33;;;3.80;99.90;;;;;;6126840;23;20078;-92
2022/01/20 03:29:57;;;;;;;53.75;34.97;;;3.90;99.90;;;;;;6100753;23;20071;-92
2022/01/20 03:32:22;;;;;;;54.97;34.33;;;4.00;99.90;;;;;;6101121;23;20360;-92
2022/01/20 03:34:48;;;;;;;57.10;34.00;;;3.90;99.90;;;;;;6101562;23;20070;-92
2022/01/20 03:37:14;;;;;;;54.17;34.13;;;4.00;99.90;;;;;;6127070;23;20067;-92
2022/01/20 03:39:39;;;;;;;51.95;33.88;;;4.60;99.90;;;;;;6126403;23;20042;-92
2022/01/20 03:42:05;;;;;;;55.47;34.13;;;4.50;99.90;;;;;;6100079;23;20060;-92
2022/01/20 03:44:31;;;;;;;53.72;34.55;;;4.00;99.90;;;;;;6100734;23;20009;-93
2022/01/20 03:47:00;;;;;;;51.25;34.15;;;4.30;99.90;;;;;;6127358;23;20028;-92
2022/01/20 03:49:32;;;;;;;51.58;33.55;;;4.30;99.90;;;;;;6126799;23;20053;-93
2022/01/20 03:51:58;;;;;;;53.38;35.00;;;3.80;99.90;;;;;;6126948;23;20002;-92
2022/01/20 03:54:24;;;;;;;54.55;34.83;;;4.30;99.90;;;;;;6100997;23;20010;-92
2022/01/20 03:56:49;;;;;;;58.78;35.75;;;3.80;99.90;;;;;;6100301;23;20006;-93
2022/01/20 03:59:15;;;;;;;57.03;35.78;;;3.70;99.90;;;;;;6100719;23;20157;-92
2022/01/20 04:01:41;;;;;;;59.47;37.78;;;3.80;99.90;;;;;;6101713;23;20009;-92
2022/01/20 04:04:06;;;;;;;55.10;35.63;;;4.20;99.90;;;;;;6126018;23;20096;-92
2022/01/20 04:06:32;;;;;;;60.92;40.17;;;4.30;99.90;;;;;;6126446;23;20080;-92
2022/01/20 04:08:58;;;;;;;64.72;40.75;;;4.40;99.90;;;;;;6101699;23;20013;-92
2022/01/20 04:11:26;;;;;;;63.75;40.05;;;3.80;99.90;;;;;;6101398;23;20012;-93
2022/01/20 04:13:53;;;;;;;60.55;38.85;;;3.90;99.90;;;;;;6127610;23;20021;-92
2022/01/20 04:16:37;;;;;;;60.85;39.40;;;4.00;99.90;;;;;;6127916;23;20002;-92
2022/01/20 04:19:09;;;;;;;63.25;38.38;;;3.80;99.90;;;;;;6127385;23;20013;-92
2022/01/20 04:21:37;;;;;;;62.22;39.05;;;3.70;99.90;;;;;;6127391;23;20002;-93
2022/01/20 04:24:05;;;;;;;63.22;39.90;;;3.80;99.90;;;;;;6127371;23;20005;-92
2022/01/20 04:26:33;;;;;;;62.17;38.95;;;3.80;99.90;;;;;;6126856;23;20077;-90
2022/01/20 04:28:59;;;;;;;61.22;36.67;;;3.90;99.90;;;;;;6127292;23;20002;-92
2022/01/20 04:31:27;;;;;;;58.97;38.03;;;3.80;99.90;;;;;;6127674;23;20017;-92
2022/01/20 04:33:53;;;;;;;61.30;38.20;;;4.30;99.90;;;;;;6127559;23;20042;-92
2022/01/20 04:36:19;;;;;;;58.25;37.45;;;3.90;99.90;;;;;;6127013;23;20006;-92
2022/01/20 04:38:45;;;;;;;58.50;36.53;;;3.90;99.90;;;;;;6099728;23;20021;-92
2022/01/20 04:41:11;;;;;;;56.53;35.47;;;4.40;99.90;;;;;;6126442;23;20073;-93
2022/01/20 04:43:37;;;;;;;59.67;36.15;;;4.40;99.90;;;;;;6125686;23;20318;-94
2022/01/20 04:57:06;;;;;;;50.63;33.58;;;3.90;99.90;;;;;;6126668;23;20006;-92
2022/01/20 04:59:32;;;;;;;52.05;33.30;;;4.50;99.90;;;;;;6125838;23;20373;-90
2022/01/20 05:01:58;;;;;;;49.38;31.70;;;4.00;99.90;;;;;;6126103;23;20005;-92
2022/01/20 05:04:25;;;;;;;51.30;33.13;;;3.90;99.90;;;;;;6099627;23;20010;-92
2022/01/20 05:06:53;;;;;;;50.28;33.38;;;4.20;99.90;;;;;;6125732;23;20345;-92
2022/01/20 05:09:21;;;;;;;46.75;30.63;;;4.50;99.90;;;;;;6126145;23;20009;-92
2022/01/20 05:11:57;;;;;;;51.83;33.05;;;4.00;99.90;;;;;;6126246;23;20073;-92
2022/01/20 05:14:23;;;;;;;48.55;31.83;;;4.10;99.90;;;;;;6125743;23;20018;-93
2022/01/20 05:16:48;;;;;;;51.72;32.90;;;4.60;99.90;;;;;;6125508;23;20006;-92
2022/01/20 05:19:14;;;;;;;49.17;32.38;;;4.20;99.90;;;;;;6100079;23;20237;-92
2022/01/20 05:21:39;;;;;;;50.47;31.60;;;4.20;99.90;;;;;;6100527;23;20012;-93
2022/01/20 05:24:05;;;;;;;51.17;34.15;;;4.20;99.90;;;;;;6099600;23;20010;-92
2022/01/20 05:26:31;;;;;;;45.50;29.65;;;4.20;99.90;;;;;;6126047;23;20005;-92
2022/01/20 05:28:56;;;;;;;49.55;32.17;;;4.20;99.90;;;;;;6125711;23;20006;-92
2022/01/20 05:31:22;;;;;;;49.90;31.65;;;4.80;99.90;;;;;;6126646;23;20085;-92
2022/01/20 05:33:48;;;;;;;44.70;29.15;;;4.90;99.90;;;;;;6126620;23;20006;-93
2022/01/20 05:36:13;;;;;;;44.55;27.98;;;4.20;99.90;;;;;;6126435;23;20002;-92
2022/01/20 05:38:39;;;;;;;43.30;29.90;;;4.20;99.90;;;;;;6126994;23;20014;-92
2022/01/20 05:41:05;;;;;;;41.60;28.02;;;4.40;99.90;;;;;;6100437;23;20322;-93
2022/01/20 05:43:30;;;;;;;45.40;29.55;;;4.20;99.90;;;;;;6102721;23;20092;-89
2022/01/20 05:45:56;;;;;;;41.03;28.42;;;4.80;99.90;;;;;;6099982;23;20002;-92
2022/01/20 05:48:32;;;;;;;42.70;26.52;;;4.20;99.90;;;;;;6099642;23;20496;-93
2022/01/20 05:50:59;;;;;;;39.00;26.10;;;4.10;99.90;;;;;;6125142;23;20447;-92
2022/01/20 05:53:25;;;;;;;44.17;26.75;;;4.10;99.90;;;;;;6125695;23;20013;-93
2022/01/20 05:55:50;;;;;;;41.17;26.13;;;4.50;99.90;;;;;;6099716;23;20089;-91
2022/01/20 05:58:16;;;;;;;43.05;28.42;;;4.20;99.90;;;;;;6125920;23;20012;-92
2022/01/20 06:00:42;;;;;;;40.17;25.60;;;4.20;99.90;;;;;;6125427;23;20070;-92
2022/01/20 06:05:53;;;;;;;39.63;25.80;;;4.10;99.90;;;;;;6125230;23;20359;-91
2022/01/20 06:08:19;;;;;;;64.65;39.47;;;4.60;99.90;;;;;;6124845;23;20437;-91
2022/01/20 06:10:45;;;;;;;47.20;31.20;;;4.10;99.90;;;;;;6124800;23;20010;-91
2022/01/20 06:13:11;;;;;;;36.35;25.58;;;4.80;99.90;;;;;;6124992;23;20329;-91
2022/01/20 06:15:36;;;;;;;35.72;23.88;;;4.80;99.90;;;;;;6124082;23;20014;-92
2022/01/20 06:18:03;;;;;;;37.13;23.45;;;4.80;99.90;;;;;;6124815;23;20012;-90
2022/01/20 06:20:30;;;;;;;36.92;25.58;;;4.30;99.90;;;;;;6124431;23;20094;-92
2022/01/20 06:22:55;;;;;;;34.88;22.95;;;4.30;99.90;;;;;;6125017;23;20006;-93
2022/01/20 06:25:21;;;;;;;32.47;23.25;;;4.70;99.90;;;;;;6124569;23;20061;-91
2022/01/20 06:27:48;;;;;;;33.80;22.40;;;4.30;99.90;;;;;;6124741;23;20041;-92
2022/01/20 06:30:13;;;;;;;30.88;21.50;;;4.60;99.90;;;;;;6125127;23;20017;-91
2022/01/20 06:32:39;;;;;;;32.72;21.73;;;4.30;99.90;;;;;;6125350;23;20002;-92
2022/01/20 06:35:05;;;;;;;31.95;20.95;;;4.80;99.90;;;;;;6098886;23;20034;-91
2022/01/20 06:37:31;;;;;;;30.25;20.40;;;4.30;99.90;;;;;;6124980;23;20061;-92
2022/01/20 06:39:57;;;;;;;33.20;21.65;;;4.70;99.90;;;;;;6099189;23;20018;-92
2022/01/20 06:42:22;;;;;;;31.88;21.77;;;4.20;99.90;;;;;;6099029;23;20002;-91
2022/01/20 06:44:48;;;;;;;35.63;21.80;;;4.20;99.90;;;;;;6098934;23;20010;-92
2022/01/20 06:47:14;;;;;;;34.45;22.52;;;4.10;99.90;;;;;;6125084;23;20006;-92
2022/01/20 06:49:40;;;;;;;30.95;22.00;;;4.10;99.90;;;;;;6124554;23;20009;-91
2022/01/20 06:52:06;;;;;;;32.08;22.23;;;4.50;99.90;;;;;;6124850;23;20464;-92
2022/01/20 06:54:32;;;;;;;33.05;22.15;;;4.00;99.90;;;;;;6124769;23;20020;-91
2022/01/20 06:56:59;;;;;;;32.08;22.70;;;4.00;99.90;;;;;;6124632;23;20057;-90
2022/01/20 06:59:25;;;;;;;32.22;22.85;;;4.00;99.90;;;;;;6098244;23;20022;-92
2022/01/20 07:01:51;;;;;;;36.13;23.58;;;4.10;99.90;;;;;;6098322;23;20394;-91
2022/01/20 07:04:17;;;;;;;33.13;23.40;;;4.60;99.90;;;;;;6124353;23;20010;-91
2022/01/20 07:06:43;;;;;;;35.08;23.38;;;4.20;99.90;;;;;;6125210;23;20013;-91
2022/01/20 07:09:10;;;;;;;33.78;22.92;;;4.20;99.90;;;;;;6126107;23;20030;-91
2022/01/20 07:11:39;;;;;;;33.70;23.95;;;4.20;99.90;;;;;;6124666;23;20006;-91
2022/01/20 07:14:06;;;;;;;36.65;24.58;;;4.20;99.90;;;;;;6098601;23;20022;-90
2022/01/20 07:16:32;;;;;;;35.78;25.75;;;4.90;99.90;;;;;;6124588;23;20341;-91
2022/01/20 07:18:57;;;;;;;34.90;23.27;;;4.30;99.90;;;;;;6098272;23;20014;-92
2022/01/20 07:21:24;;;;;;;33.25;22.67;;;4.20;99.90;;;;;;6123910;23;20002;-91
2022/01/20 07:23:50;;;;;;;35.95;23.55;;;4.60;99.90;;;;;;6124961;23;20437;-92
2022/01/20 07:26:16;;;;;;;36.05;24.17;;;4.20;99.90;;;;;;6126718;23;20010;-91
2022/01/20 07:28:42;;;;;;;38.95;25.50;;;4.10;99.90;;;;;;6126328;23;20329;-91
2022/01/20 07:31:08;;;;;;;45.20;29.73;;;4.60;99.90;;;;;;6126652;23;20002;-91
2022/01/20 07:33:34;;;;;;;43.40;29.33;;;4.20;99.90;;;;;;6100436;23;20006;-91
2022/01/20 07:36:00;;;;;;;40.58;27.48;;;4.70;99.90;;;;;;6100443;23;20005;-91
2022/01/20 07:38:26;;;;;;;45.03;30.33;;;4.30;99.90;;;;;;6126769;23;20009;-91
2022/01/20 07:40:52;;;;;;;42.58;28.60;;;4.90;99.90;;;;;;6100865;23;20014;-92
2022/01/20 07:43:19;;;;;;;38.83;26.48;;;4.60;99.90;;;;;;6126169;23;19998;-91
2022/01/20 07:45:45;;;;;;;32.72;23.42;;;4.30;99.90;;;;;;6126542;23;20006;-92
2022/01/20 07:48:11;;;;;;;39.92;25.30;;;4.20;99.90;;;;;;6125990;23;20005;-91
2022/01/20 07:50:37;;;;;;;37.67;24.77;;;4.20;99.90;;;;;;6101450;23;20320;-92
2022/01/20 07:53:03;;;;;;;35.35;23.20;;;5.00;99.90;;;;;;6100766;23;20476;-91
2022/01/20 07:55:29;;;;;;;35.40;22.60;;;4.30;99.90;;;;;;6100020;23;20084;-92
2022/01/20 07:57:55;;;;;;;31.30;21.77;;;4.20;99.90;;;;;;6126087;23;20067;-91
2022/01/20 08:00:21;;;;;;;34.35;22.10;;;4.40;99.90;;;;;;6099881;23;20018;-91
2022/01/20 08:02:47;;;;;;;32.58;21.52;;;4.40;99.90;;;;;;6126727;23;20005;-91
2022/01/20 08:05:14;;;;;;;30.80;21.58;;;4.50;99.90;;;;;;6100176;23;20009;-91
2022/01/20 08:07:40;;;;;;;28.88;20.48;;;4.60;99.90;;;;;;6100321;23;20002;-91
2022/01/20 08:10:07;;;;;;;35.22;24.80;;;4.80;99.90;;;;;;6126064;23;20006;-91
2022/01/20 08:12:32;;;;;;;33.63;21.95;;;4.60;99.90;;;;;;6099909;23;20096;-91
2022/01/20 08:14:59;;;;;;;31.55;22.02;;;5.00;99.90;;;;;;6127256;23;20069;-91
2022/01/20 08:17:25;;;;;;;27.42;19.88;;;4.50;99.90;;;;;;6125510;23;20451;-91
2022/01/20 08:19:51;;;;;;;28.30;20.02;;;5.00;99.90;;;;;;6099647;23;20085;-92
2022/01/20 08:22:17;;;;;;;32.08;19.73;;;5.00;99.90;;;;;;6126057;23;20002;-91
2022/01/20 08:24:43;;;;;;;30.33;19.83;;;4.50;99.90;;;;;;6126287;23;20496;-91
2022/01/20 08:27:09;;;;;;;31.27;20.27;;;4.20;99.90;;;;;;6099991;23;20010;-91
2022/01/20 08:29:36;;;;;;;30.40;20.20;;;4.60;99.90;;;;;;6126071;23;20036;-91
2022/01/20 08:32:03;;;;;;;32.00;22.17;;;4.20;99.90;;;;;;6126268;23;20038;-91
2022/01/20 08:34:29;;;;;;;26.85;18.77;;;4.40;99.90;;;;;;6125403;23;20006;-92
2022/01/20 08:36:55;;;;;;;29.95;20.60;;;4.30;99.90;;;;;;6125763;23;20073;-92
2022/01/20 08:42:01;;;;;;;29.98;19.15;;;5.00;99.90;;;;;;6125512;23;20002;-92
2022/01/20 08:44:27;;;;;;;28.48;18.83;;;4.80;99.90;;;;;;6125514;23;20006;-92
2022/01/20 08:46:54;;;;;;;26.13;18.60;;;4.50;99.90;;;;;;6100051;23;20002;-92
2022/01/20 08:49:20;;;;;;;27.77;18.40;;;4.50;99.90;;;;;;6126376;23;20334;-92
2022/01/20 08:51:46;;;;;;;26.55;18.17;;;5.00;99.90;;;;;;6100027;23;20029;-92
2022/01/20 08:54:15;;;;;;;23.70;17.15;;;5.20;99.90;;;;;;6125796;23;20025;-92
2022/01/20 08:56:41;;;;;;;26.42;17.75;;;4.80;99.90;;;;;;6125934;23;20006;-91
2022/01/20 08:59:08;;;;;;;24.20;17.27;;;4.90;99.90;;;;;;6100433;23;20014;-92
2022/01/20 09:01:35;;;;;;;24.65;17.60;;;4.80;99.90;;;;;;6099331;23;20006;-92
2022/01/20 09:04:00;;;;;;;26.00;17.73;;;4.60;99.90;;;;;;6099785;23;20006;-92
2022/01/20 09:06:26;;;;;;;29.85;18.35;;;4.50;99.90;;;;;;6100220;23;20033;-91
2022/01/20 09:08:52;;;;;;;29.23;19.52;;;4.40;99.90;;;;;;6125601;23;20017;-92
2022/01/20 09:11:24;;;;;;;27.65;18.98;;;4.40;99.90;;;;;;6126046;23;20073;-92
2022/01/20 09:16:36;;;;;;;30.30;20.42;;;5.30;99.90;;;;;;6125532;23;20013;-92
2022/01/20 09:19:02;;;;;;;29.35;20.77;;;5.10;99.90;;;;;;6125245;23;20061;-92
2022/01/20 09:21:28;;;;;;;30.10;21.48;;;5.30;99.90;;;;;;6100136;23;20034;-92
2022/01/20 09:23:54;;;;;;;29.13;20.17;;;4.70;99.90;;;;;;6099742;23;20037;-92
2022/01/20 09:26:20;;;;;;;30.17;20.30;;;4.60;99.90;;;;;;6100032;23;20013;-92
2022/01/20 09:28:46;;;;;;;30.38;20.60;;;4.90;99.90;;;;;;6125016;23;20006;-91
2022/01/20 09:31:12;;;;;;;32.00;20.27;;;5.30;99.90;;;;;;6125384;23;20381;-91
2022/01/20 09:33:39;;;;;;;29.27;20.90;;;5.30;99.90;;;;;;6126069;23;20084;-92
2022/01/20 09:36:09;;;;;;;31.23;19.27;;;5.40;99.90;;;;;;6125572;23;20605;-92
2022/01/20 09:38:35;;;;;;;25.90;19.13;;;5.40;99.90;;;;;;6125168;23;20433;-91
2022/01/20 09:41:02;;;;;;;30.30;19.75;;;5.10;99.90;;;;;;6099626;23;20017;-92
2022/01/20 09:43:28;;;;;;;29.05;19.80;;;4.70;99.90;;;;;;6098454;23;20089;-92
2022/01/20 09:45:55;;;;;;;28.17;20.42;;;5.00;99.90;;;;;;6125800;23;20045;-92
2022/01/20 09:48:22;;;;;;;27.98;18.58;;;4.60;99.90;;;;;;6125506;23;20009;-91
2022/01/20 09:50:49;;;;;;;26.60;18.55;;;5.20;99.90;;;;;;6126396;23;20002;-92
2022/01/20 09:53:15;;;;;;;26.75;18.75;;;4.50;99.90;;;;;;6099769;23;20009;-91
2022/01/20 09:55:41;;;;;;;27.45;18.60;;;5.00;99.90;;;;;;6125771;23;20009;-91
2022/01/20 09:58:10;;;;;;;27.27;18.65;;;4.80;99.90;;;;;;6098701;23;20010;-92
2022/01/20 10:00:38;;;;;;;22.73;16.60;;;5.10;99.90;;;;;;6124869;23;20009;-91
2022/01/20 10:03:08;;;;;;;25.75;18.27;;;4.70;99.90;;;;;;6099178;23;20033;-92
2022/01/20 10:05:41;;;;;;;26.42;17.95;;;4.60;99.90;;;;;;6126353;23;20006;-91
2022/01/20 10:08:22;;;;;;;25.88;17.17;;;5.00;99.90;;;;;;6099508;23;20006;-92
2022/01/20 10:10:48;;;;;;;26.40;18.10;;;4.70;99.90;;;;;;6098943;23;20001;-90
2022/01/20 10:13:16;;;;;;;24.45;17.25;;;4.70;99.90;;;;;;6125033;23;20142;-92
2022/01/20 10:15:42;;;;;;;27.65;16.65;;;5.30;99.90;;;;;;6125378;23;20014;-92
2022/01/20 10:18:11;;;;;;;25.33;17.48;;;5.40;99.90;;;;;;6099090;23;20010;-91
2022/01/20 10:20:49;;;;;;;24.75;17.77;;;4.80;99.90;;;;;;6124894;23;20037;-92
2022/01/20 10:23:25;;;;;;;27.73;16.75;;;5.40;99.90;;;;;;6099589;23;20085;-92
2022/01/20 10:26:01;;;;;;;23.35;16.17;;;5.30;99.90;;;;;;6098958;23;20021;-93
2022/01/20 10:28:26;;;;;;;25.60;15.90;;;5.60;99.90;;;;;;6124956;23;20472;-91
2022/01/20 10:30:55;;;;;;;24.52;15.20;;;5.40;99.90;;;;;;6099515;23;20037;-91
2022/01/20 10:33:21;;;;;;;23.65;16.10;;;5.50;99.90;;;;;;6125078;23;20009;-92
2022/01/20 10:35:46;;;;;;;26.33;16.35;;;5.70;99.90;;;;;;6099469;23;20033;-91
2022/01/20 10:38:14;;;;;;;27.90;17.73;;;5.60;99.90;;;;;;6124933;23;20053;-92
2022/01/20 10:40:50;;;;;;;25.73;17.15;;;5.10;99.90;;;;;;6124711;23;20018;-92
2022/01/20 10:43:26;;;;;;;23.70;15.82;;;5.10;99.90;;;;;;6125003;23;20006;-92
2022/01/20 10:46:21;;;;;;;26.65;15.55;;;5.00;99.90;;;;;;6099262;23;20005;-91
2022/01/20 10:49:00;;;;;;;21.98;15.25;;;5.50;99.90;;;;;;6100012;23;20431;-91
2022/01/20 10:51:26;;;;;;;23.83;15.40;;;5.20;99.90;;;;;;6099077;23;20433;-92
2022/01/20 10:54:19;;;;;;;23.30;16.90;;;5.80;99.90;;;;;;6125149;23;20378;-91
2022/01/20 10:56:52;;;;;;;22.55;14.43;;;5.20;99.90;;;;;;6124956;23;20010;-91
2022/01/20 10:59:19;;;;;;;24.20;15.85;;;5.00;99.90;;;;;;6125253;23;20017;-92
2022/01/20 11:02:16;;;;;;;24.02;14.30;;;5.60;99.90;;;;;;6127080;23;20002;-88
2022/01/20 11:04:41;;;;;;;26.67;15.40;;;4.90;99.90;;;;;;6118456;23;20029;-87
2022/01/20 11:07:09;;;;;;;22.67;14.10;;;5.00;99.90;;;;;;6127214;23;20010;-88
2022/01/20 11:09:40;;;;;;;22.63;14.80;;;5.60;99.90;;;;;;6126106;23;20026;-88
2022/01/20 11:12:06;;;;;;;21.88;13.45;;;5.60;99.90;;;;;;6126512;23;20014;-87
2022/01/20 11:14:33;;;;;;;23.00;15.32;;;5.10;99.90;;;;;;6126234;23;20028;-87
2022/01/20 11:17:00;;;;;;;21.88;14.35;;;5.10;99.90;;;;;;6126432;23;20057;-88
2022/01/20 11:19:26;;;;;;;24.20;15.40;;;5.10;99.90;;;;;;6126863;23;20421;-88
2022/01/20 11:22:08;;;;;;;20.52;14.38;;;5.10;99.90;;;;;;6126566;23;20441;-86
2022/01/20 11:24:34;;;;;;;23.33;14.65;;;5.00;99.90;;;;;;6126756;23;20002;-88
2022/01/20 11:27:01;;;;;;;26.77;15.95;;;5.10;99.90;;;;;;6126224;23;20006;-88
2022/01/20 11:29:48;;;;;;;22.52;14.93;;;5.00;99.90;;;;;;6126640;23;20001;-88
2022/01/20 11:32:35;;;;;;;27.20;15.68;;;4.90;99.90;;;;;;6126764;23;20014;-87
2022/01/20 11:35:09;;;;;;;24.58;14.77;;;5.60;99.90;;;;;;6126816;23;20069;-88
2022/01/20 11:37:43;;;;;;;23.10;14.60;;;5.00;99.90;;;;;;6126840;23;20085;-88
2022/01/20 11:40:18;;;;;;;26.27;14.10;;;5.70;99.90;;;;;;6099970;23;20017;-89
2022/01/20 11:42:56;;;;;;;22.02;13.88;;;5.20;99.90;;;;;;6100118;23;20009;-87
2022/01/20 11:45:36;;;;;;;20.17;13.23;;;5.30;99.90;;;;;;6126008;23;20010;-88
2022/01/20 11:48:16;;;;;;;20.00;12.48;;;5.40;99.90;;;;;;6126828;23;20468;-88
2022/01/20 11:50:43;;;;;;;19.70;11.68;;;5.60;99.90;;;;;;6126407;23;20009;-88
2022/01/20 11:53:20;;;;;;;19.95;11.93;;;5.60;99.90;;;;;;6126403;23;20318;-89
2022/01/20 11:55:55;;;;;;;16.88;11.23;;;6.10;99.90;;;;;;6125813;23;20006;-88
2022/01/20 11:58:24;;;;;;;19.60;11.57;;;6.10;99.90;;;;;;6125752;23;20456;-88
2022/01/20 12:01:02;;;;;;;15.95;10.40;;;6.10;99.90;;;;;;6126573;23;20029;-89
2022/01/20 12:03:29;;;;;;;17.38;11.35;;;5.70;99.90;;;;;;6126380;23;20010;-88
2022/01/20 12:06:10;;;;;;;18.75;11.07;;;6.00;99.90;;;;;;6125747;23;20008;-89
2022/01/20 12:08:36;;;;;;;17.95;10.88;;;6.30;99.90;;;;;;6099091;23;20009;-89
2022/01/20 12:11:08;;;;;;;16.90;10.93;;;5.60;99.90;;;;;;6125853;23;20006;-89
2022/01/20 12:13:48;;;;;;;17.42;10.35;;;5.60;99.90;;;;;;6126029;23;20008;-90
2022/01/20 12:16:22;;;;;;;15.75;9.77;;;5.70;99.90;;;;;;6100001;23;20409;-90
2022/01/20 12:18:49;;;;;;;18.00;10.23;;;5.70;99.90;;;;;;6125148;23;20013;-90
2022/01/20 12:21:15;;;;;;;13.88;9.25;;;5.50;99.90;;;;;;6126115;23;20137;-90
2022/01/20 12:23:46;;;;;;;16.08;9.20;;;6.20;99.90;;;;;;6126145;23;20025;-91
2022/01/20 12:26:11;;;;;;;12.15;8.13;;;6.30;99.90;;;;;;6126690;23;20032;-88
2022/01/20 12:28:37;;;;;;;12.35;8.43;;;5.80;99.90;;;;;;6125582;23;20006;-89
2022/01/20 12:31:06;;;;;;;14.32;8.57;;;6.30;99.90;;;;;;6126312;23;20347;-91
2022/01/20 12:33:33;;;;;;;10.15;6.90;;;6.20;99.90;;;;;;6125745;23;20006;-88
2022/01/20 12:36:03;;;;;;;11.73;7.75;;;6.20;99.90;;;;;;6099408;23;20459;-90
2022/01/20 12:38:34;;;;;;;10.00;7.38;;;6.00;99.90;;;;;;6125727;23;20002;-89
2022/01/20 12:41:01;;;;;;;12.77;7.57;;;6.20;99.90;;;;;;6125421;23;20341;-90
2022/01/20 12:43:38;;;;;;;10.05;7.03;;;6.20;99.90;;;;;;6126053;23;20110;-91
2022/01/20 12:46:05;;;;;;;11.13;7.75;;;6.10;99.90;;;;;;6125927;23;20081;-89
2022/01/20 12:48:31;;;;;;;10.02;6.93;;;6.00;99.90;;;;;;6099889;23;20077;-90
2022/01/20 12:51:04;;;;;;;12.88;7.00;;;6.30;99.90;;;;;;6099574;23;20002;-91
2022/01/20 12:53:55;;;;;;;11.07;7.25;;;6.60;99.90;;;;;;6125129;23;20069;-91
2022/01/20 12:56:30;;;;;;;11.10;7.28;;;6.00;99.90;;;;;;6099419;23;20002;-91
2022/01/20 12:58:56;;;;;;;13.77;8.43;;;6.30;99.90;;;;;;6125971;23;20076;-91
2022/01/20 13:01:22;;;;;;;14.60;8.27;;;6.30;99.90;;;;;;6100128;23;20010;-91
2022/01/20 13:03:49;;;;;;;9.65;6.47;;;6.40;99.90;;;;;;6099854;23;20009;-92
2022/01/20 13:06:25;;;;;;;11.63;6.75;;;6.50;99.90;;;;;;6099668;23;20451;-92
2022/01/20 13:09:09;;;;;;;12.50;6.95;;;7.10;99.90;;;;;;6099898;23;20006;-91
2022/01/20 13:11:54;;;;;;;14.55;6.30;;;6.50;99.90;;;;;;6125556;23;20013;-91
2022/01/20 13:14:31;;;;;;;11.27;6.40;;;6.60;99.90;;;;;;6100010;23;20456;-91
2022/01/20 13:16:58;;;;;;;9.45;6.28;;;6.60;99.90;;;;;;6100163;23;20009;-91
2022/01/20 13:19:45;;;;;;;10.82;6.05;;;6.50;99.90;;;;;;6099624;23;20453;-91
2022/01/20 13:25:14;;;;;;;11.15;6.30;;;6.50;99.90;;;;;;6125665;23;20030;-91
2022/01/20 13:27:52;;;;;;;9.80;6.43;;;6.90;99.90;;;;;;6099993;23;20034;-91
2022/01/20 13:30:36;;;;;;;8.25;6.18;;;7.30;99.70;;;;;;6125499;23;20090;-91
2022/01/20 13:33:27;;;;;;;11.07;6.20;;;7.60;97.90;;;;;;6099696;23;20026;-91
2022/01/20 13:36:01;;;;;;;10.80;6.75;;;9.10;90.80;;;;;;6125019;23;20006;-91
2022/01/20 13:38:45;;;;;;;9.25;6.45;;;8.50;91.50;;;;;;6100197;23;20002;-91
2022/01/20 13:41:22;;;;;;;9.55;6.57;;;8.80;91.20;;;;;;6099321;23;20040;-91
2022/01/20 13:46:41;;;;;;;10.20;7.13;;;7.80;95.10;;;;;;6125067;23;20016;-91
2022/01/20 13:49:19;;;;;;;11.55;7.60;;;7.10;96.90;;;;;;6125843;23;20025;-91
2022/01/20 13:51:46;;;;;;;10.32;7.47;;;7.40;96.70;;;;;;6126211;23;19998;-92
2022/01/20 13:54:12;;;;;;;9.70;7.07;;;7.70;97.80;;;;;;6099565;23;20029;-92
2022/01/20 13:56:38;;;;;;;11.98;7.68;;;7.10;97.10;;;;;;6125530;23;20010;-91
2022/01/20 13:59:06;;;;;;;11.15;7.72;;;7.60;96.20;;;;;;6125839;23;20018;-91
2022/01/20 14:01:33;;;;;;;12.35;8.00;;;7.40;96.80;;;;;;6125723;23;20004;-91